createdAt,value
2022-10-18T00:01:25.915Z,6.60
2022-10-18T00:03:53.788Z,6.50
2022-10-18T00:06:21.962Z,6.40
2022-10-18T00:08:49.788Z,6.20
2022-10-18T00:11:18.000Z,6.30
2022-10-18T00:13:46.175Z,6.20
2022-10-18T00:16:17.709Z,6.40
2022-10-18T00:18:48.089Z,6.30
2022-10-18T00:21:20.430Z,6.50
2022-10-18T00:23:51.164Z,6.00
2022-10-18T00:26:21.682Z,6.20
2022-10-18T00:29:00.434Z,6.50
2022-10-18T00:31:35.244Z,6.20
2022-10-18T00:34:12.343Z,6.20
2022-10-18T00:36:40.720Z,6.30
2022-10-18T00:39:15.742Z,6.00
2022-10-18T00:41:44.111Z,6.10
2022-10-18T00:44:11.889Z,6.00
2022-10-18T00:46:44.285Z,6.00
2022-10-18T00:49:18.856Z,5.70
2022-10-18T00:51:57.892Z,6.40
2022-10-18T00:54:29.149Z,6.20
2022-10-18T00:56:57.539Z,6.10
2022-10-18T00:59:26.383Z,6.00
2022-10-18T01:01:54.330Z,5.20
2022-10-18T01:04:23.908Z,6.50
2022-10-18T01:07:01.422Z,6.00
2022-10-18T01:09:29.277Z,5.70
2022-10-18T01:12:28.394Z,5.90
2022-10-18T01:15:27.765Z,5.80
2022-10-18T01:18:34.355Z,6.00
2022-10-18T01:21:31.712Z,6.00
2022-10-18T01:24:33.028Z,6.00
2022-10-18T01:27:22.424Z,5.30
2022-10-18T01:30:33.914Z,5.50
2022-10-18T01:33:19.396Z,5.90
2022-10-18T01:36:05.653Z,5.70
2022-10-18T01:38:36.719Z,5.50
2022-10-18T01:41:11.828Z,5.50
2022-10-18T01:43:46.676Z,5.40
2022-10-18T01:46:23.919Z,6.00
2022-10-18T01:48:54.842Z,5.80
2022-10-18T01:51:34.125Z,5.50
2022-10-18T01:54:02.536Z,6.00
2022-10-18T01:57:00.332Z,5.30
2022-10-18T01:59:43.599Z,5.40
2022-10-18T02:02:48.771Z,5.40
2022-10-18T02:05:56.889Z,5.80
2022-10-18T02:09:07.047Z,5.00
2022-10-18T02:11:38.685Z,5.20
2022-10-18T02:14:12.384Z,5.30
2022-10-18T02:16:54.057Z,5.40
2022-10-18T02:19:36.078Z,5.10
2022-10-18T02:22:08.169Z,5.40
2022-10-18T02:24:43.047Z,5.40
2022-10-18T02:27:11.782Z,5.50
2022-10-18T02:29:43.076Z,5.50
2022-10-18T02:32:41.411Z,5.50
2022-10-18T02:35:21.018Z,5.50
2022-10-18T02:37:52.571Z,5.70
2022-10-18T02:40:21.091Z,5.10
2022-10-18T02:42:58.079Z,5.20
2022-10-18T02:45:27.573Z,5.50
2022-10-18T02:47:55.647Z,5.40
2022-10-18T02:50:23.619Z,5.70
2022-10-18T02:52:51.486Z,5.70
2022-10-18T02:55:19.887Z,5.60
2022-10-18T02:57:47.758Z,5.10
2022-10-18T03:00:16.077Z,5.20
2022-10-18T03:02:44.079Z,5.90
2022-10-18T03:05:11.873Z,5.20
2022-10-18T03:07:39.754Z,5.00
2022-10-18T03:10:08.508Z,5.50
2022-10-18T03:12:36.462Z,5.50
2022-10-18T03:15:05.266Z,5.30
2022-10-18T03:17:33.603Z,5.10
2022-10-18T03:20:01.983Z,5.50
2022-10-18T03:25:02.877Z,5.10
2022-10-18T03:27:30.992Z,5.30
2022-10-18T03:30:01.242Z,5.40
2022-10-18T03:32:30.011Z,5.20
2022-10-18T03:34:58.112Z,5.50
2022-10-18T03:37:26.504Z,5.20
2022-10-18T03:39:54.576Z,5.50
2022-10-18T03:42:22.753Z,5.50
2022-10-18T03:44:50.590Z,4.70
2022-10-18T03:47:18.490Z,5.00
2022-10-18T03:49:46.559Z,5.30
2022-10-18T03:52:14.596Z,5.40
2022-10-18T03:54:42.496Z,5.60
2022-10-18T03:57:10.558Z,5.50
2022-10-18T03:59:38.546Z,5.50
2022-10-18T04:02:07.533Z,5.10
2022-10-18T04:04:35.382Z,5.60
2022-10-18T04:07:03.561Z,5.10
2022-10-18T04:09:31.690Z,5.10
2022-10-18T04:11:59.623Z,5.40
2022-10-18T04:14:27.841Z,5.30
2022-10-18T04:16:55.795Z,5.30
2022-10-18T04:19:23.828Z,5.00
2022-10-18T04:21:51.620Z,4.50
2022-10-18T04:24:20.073Z,5.20
2022-10-18T04:26:48.204Z,5.40
2022-10-18T04:29:16.113Z,5.40
2022-10-18T04:31:44.012Z,5.10
2022-10-18T04:34:11.810Z,5.50
2022-10-18T04:36:39.727Z,5.20
2022-10-18T04:39:07.700Z,5.20
2022-10-18T04:41:36.289Z,5.30
2022-10-18T04:44:04.158Z,5.80
2022-10-18T04:46:32.052Z,5.50
2022-10-18T04:49:01.717Z,5.20
2022-10-18T04:51:30.448Z,5.30
2022-10-18T04:53:58.244Z,5.10
2022-10-18T04:56:26.033Z,5.30
2022-10-18T04:58:53.924Z,5.20
2022-10-18T05:01:22.015Z,5.40
2022-10-18T05:03:55.130Z,5.30
2022-10-18T05:06:23.468Z,5.70
2022-10-18T05:08:51.382Z,5.40
2022-10-18T05:11:19.381Z,5.50
2022-10-18T05:13:50.053Z,5.00
2022-10-18T05:16:19.160Z,5.30
2022-10-18T05:18:47.165Z,5.40
2022-10-18T05:21:16.273Z,5.70
2022-10-18T05:23:44.244Z,5.60
2022-10-18T05:26:12.069Z,5.40
2022-10-18T05:28:41.434Z,4.90
2022-10-18T05:31:11.996Z,5.00
2022-10-18T05:33:39.887Z,5.40
2022-10-18T05:36:09.084Z,5.10
2022-10-18T05:38:45.587Z,5.40
2022-10-18T05:41:14.476Z,5.40
2022-10-18T05:43:42.429Z,5.30
2022-10-18T05:46:15.445Z,5.30
2022-10-18T05:48:49.671Z,5.20
2022-10-18T05:51:19.435Z,5.50
2022-10-18T05:53:47.297Z,5.50
2022-10-18T05:56:15.259Z,5.50
2022-10-18T05:58:43.359Z,4.80
2022-10-18T06:01:11.434Z,5.20
2022-10-18T06:03:39.618Z,5.10
2022-10-18T06:06:11.665Z,5.30
2022-10-18T06:08:42.847Z,5.40
2022-10-18T06:11:14.874Z,5.30
2022-10-18T06:13:49.505Z,5.10
2022-10-18T06:16:20.885Z,5.10
2022-10-18T06:18:51.703Z,4.90
2022-10-18T06:21:20.674Z,5.10
2022-10-18T06:23:58.547Z,5.30
2022-10-18T06:26:28.748Z,5.20
2022-10-18T06:28:56.984Z,5.10
2022-10-18T06:31:25.678Z,5.60
2022-10-18T06:33:58.417Z,5.40
2022-10-18T06:36:27.035Z,4.80
2022-10-18T06:38:56.727Z,5.40
2022-10-18T06:41:24.719Z,5.50
2022-10-18T06:43:57.447Z,4.80
2022-10-18T06:46:27.006Z,5.60
2022-10-18T06:48:55.621Z,5.30
2022-10-18T06:51:23.969Z,4.70
2022-10-18T06:54:06.222Z,4.90
2022-10-18T06:56:40.291Z,5.40
2022-10-18T06:59:08.222Z,4.80
2022-10-18T07:01:36.977Z,4.90
2022-10-18T07:04:05.180Z,5.10
2022-10-18T07:06:32.988Z,5.40
2022-10-18T07:09:03.108Z,5.00
2022-10-18T07:11:31.075Z,5.30
2022-10-18T07:14:03.262Z,5.30
2022-10-18T07:16:33.436Z,5.00
2022-10-18T07:19:01.736Z,5.20
2022-10-18T07:21:30.018Z,5.20
2022-10-18T07:23:58.188Z,4.90
2022-10-18T07:26:33.620Z,4.80
2022-10-18T07:29:11.827Z,5.00
2022-10-18T07:31:42.477Z,5.20
2022-10-18T07:34:14.316Z,5.40
2022-10-18T07:36:42.466Z,5.30
2022-10-18T07:39:10.289Z,5.40
2022-10-18T07:41:38.753Z,5.20
2022-10-18T07:44:06.818Z,5.20
2022-10-18T07:46:34.898Z,5.00
2022-10-18T07:49:03.502Z,5.50
2022-10-18T07:51:33.010Z,4.70
2022-10-18T07:54:00.959Z,5.20
2022-10-18T07:56:29.440Z,5.40
2022-10-18T07:58:57.713Z,5.40
2022-10-18T08:01:26.057Z,5.20
2022-10-18T08:03:54.310Z,5.20
2022-10-18T08:06:23.892Z,5.20
2022-10-18T08:08:52.430Z,5.00
2022-10-18T08:11:24.471Z,5.20
2022-10-18T08:13:54.031Z,5.00
2022-10-18T08:16:29.144Z,5.30
2022-10-18T08:19:00.416Z,5.50
2022-10-18T08:21:28.285Z,5.30
2022-10-18T08:23:56.455Z,5.10
2022-10-18T08:26:24.733Z,5.20
2022-10-18T08:28:58.254Z,4.90
2022-10-18T08:31:32.450Z,5.40
2022-10-18T08:34:00.418Z,4.70
2022-10-18T08:36:28.595Z,5.10
2022-10-18T08:38:56.725Z,5.50
2022-10-18T08:41:37.143Z,5.30
2022-10-18T08:44:32.539Z,5.40
2022-10-18T08:47:11.972Z,5.30
2022-10-18T08:50:06.285Z,5.50
2022-10-18T08:52:49.183Z,5.30
2022-10-18T08:55:52.668Z,5.20
2022-10-18T08:58:31.831Z,5.20
2022-10-18T09:01:41.147Z,5.40
2022-10-18T09:04:57.668Z,5.20
2022-10-18T09:08:02.747Z,5.70
2022-10-18T09:11:05.778Z,5.50
2022-10-18T09:14:03.607Z,5.30
2022-10-18T09:17:08.883Z,5.10
2022-10-18T09:19:56.114Z,5.20
2022-10-18T09:22:50.717Z,5.10
2022-10-18T09:25:36.305Z,5.60
2022-10-18T09:28:19.533Z,5.20
2022-10-18T09:31:21.407Z,5.40
2022-10-18T09:34:06.263Z,5.60
2022-10-18T09:36:38.728Z,5.30
2022-10-18T09:39:15.396Z,5.00
2022-10-18T09:42:00.411Z,5.70
2022-10-18T09:45:06.576Z,5.50
2022-10-18T09:48:21.822Z,5.30
2022-10-18T09:51:11.518Z,5.10
2022-10-18T09:53:46.708Z,5.30
2022-10-18T09:56:25.509Z,5.30
2022-10-18T09:58:53.459Z,5.40
2022-10-18T10:01:33.763Z,5.50
2022-10-18T10:04:04.161Z,5.90
2022-10-18T10:06:39.417Z,5.60
2022-10-18T10:09:16.978Z,5.60
2022-10-18T10:11:49.299Z,5.90
2022-10-18T10:14:30.859Z,5.90
2022-10-18T10:17:04.216Z,5.10
2022-10-18T10:19:37.516Z,5.60
2022-10-18T10:22:10.935Z,5.80
2022-10-18T10:24:46.916Z,5.70
2022-10-18T10:27:23.440Z,5.80
2022-10-18T10:29:58.184Z,6.00
2022-10-18T10:32:43.861Z,5.80
2022-10-18T10:35:54.262Z,5.60
2022-10-18T10:38:26.190Z,5.70
2022-10-18T10:40:55.798Z,5.80
2022-10-18T10:43:39.153Z,5.50
2022-10-18T10:46:20.741Z,5.40
2022-10-18T10:49:27.985Z,5.80
2022-10-18T10:52:09.393Z,5.70
2022-10-18T10:54:52.453Z,5.60
2022-10-18T10:57:26.916Z,5.70
2022-10-18T10:59:58.418Z,5.70
2022-10-18T11:02:29.546Z,6.10
2022-10-18T11:05:22.709Z,5.90
2022-10-18T11:07:57.089Z,5.90
2022-10-18T11:10:31.202Z,6.10
2022-10-18T11:13:23.886Z,5.90
2022-10-18T11:16:10.664Z,5.80
2022-10-18T11:18:41.019Z,5.90
2022-10-18T11:21:20.147Z,5.60
2022-10-18T11:23:48.107Z,6.20
2022-10-18T11:27:02.241Z,5.90
2022-10-18T11:29:47.025Z,6.10
2022-10-18T11:32:47.981Z,6.00
2022-10-18T11:35:43.870Z,6.00
2022-10-18T11:38:21.593Z,5.80
2022-10-18T11:41:32.216Z,5.70
2022-10-18T11:44:10.023Z,5.80
2022-10-18T11:46:48.152Z,5.80
2022-10-18T11:49:54.616Z,5.70
2022-10-18T11:52:37.445Z,5.40
2022-10-18T11:55:31.962Z,6.10
2022-10-18T11:58:38.911Z,5.70
2022-10-18T12:01:51.936Z,5.60
2022-10-18T12:04:26.093Z,5.70
2022-10-18T12:06:57.504Z,5.90
2022-10-18T12:09:41.858Z,5.80
2022-10-18T12:12:30.267Z,6.40
2022-10-18T12:15:30.123Z,5.80
2022-10-18T12:18:11.422Z,5.70
2022-10-18T12:20:53.309Z,6.10
2022-10-18T12:23:30.237Z,6.30
2022-10-18T12:26:06.103Z,6.10
2022-10-18T12:29:03.350Z,5.80
2022-10-18T12:31:48.867Z,5.90
2022-10-18T12:34:32.661Z,5.70
2022-10-18T12:37:40.106Z,5.60
2022-10-18T12:40:25.679Z,6.00
2022-10-18T12:42:54.170Z,6.00
2022-10-18T12:45:35.057Z,6.10
2022-10-18T12:48:07.973Z,6.10
2022-10-18T12:50:43.334Z,6.00
2022-10-18T12:53:28.265Z,5.90
2022-10-18T12:56:28.188Z,6.60
2022-10-18T12:59:15.269Z,6.40
2022-10-18T13:01:55.006Z,6.40
2022-10-18T13:04:29.681Z,6.70
2022-10-18T13:06:57.640Z,6.20
2022-10-18T13:09:38.180Z,6.20
2022-10-18T13:12:15.259Z,5.80
2022-10-18T13:15:24.901Z,6.30
2022-10-18T13:18:17.629Z,6.30
2022-10-18T13:21:10.319Z,6.60
2022-10-18T13:23:59.783Z,6.20
2022-10-18T13:26:59.082Z,6.30
2022-10-18T13:30:02.137Z,6.40
2022-10-18T13:32:43.765Z,6.30
2022-10-18T13:35:56.897Z,6.80
2022-10-18T13:38:36.827Z,6.20
2022-10-18T13:41:13.117Z,6.50
2022-10-18T13:43:56.133Z,6.30
2022-10-18T13:46:33.085Z,6.40
2022-10-18T13:49:39.933Z,6.80
2022-10-18T13:52:48.275Z,6.80
2022-10-18T13:55:53.455Z,6.40
2022-10-18T13:59:14.070Z,5.90
2022-10-18T14:02:02.761Z,6.20
2022-10-18T14:05:24.555Z,6.60
2022-10-18T14:08:08.074Z,6.30
2022-10-18T14:11:03.943Z,5.80
2022-10-18T14:13:55.144Z,6.50
2022-10-18T14:16:58.509Z,6.10
2022-10-18T14:19:56.986Z,6.40
2022-10-18T14:22:34.009Z,6.60
2022-10-18T14:25:02.572Z,6.50
2022-10-18T14:27:33.213Z,6.60
2022-10-18T14:30:11.064Z,6.30
2022-10-18T14:32:47.550Z,6.60
2022-10-18T14:35:32.671Z,5.80
2022-10-18T14:38:02.653Z,5.90
2022-10-18T14:40:40.413Z,6.10
2022-10-18T14:43:19.875Z,6.00
2022-10-18T14:45:47.790Z,6.50
2022-10-18T14:48:21.690Z,6.60
2022-10-18T14:51:00.276Z,6.10
2022-10-18T14:53:37.105Z,6.10
2022-10-18T14:56:07.810Z,6.50
2022-10-18T14:58:38.212Z,6.10
2022-10-18T15:01:06.350Z,6.00
2022-10-18T15:03:36.187Z,5.60
2022-10-18T15:06:06.121Z,5.20
2022-10-18T15:08:42.232Z,5.80
2022-10-18T15:11:14.692Z,5.80
2022-10-18T15:13:59.328Z,5.60
2022-10-18T15:16:31.622Z,6.10
2022-10-18T15:19:24.135Z,5.40
2022-10-18T15:25:06.153Z,5.20
2022-10-18T15:27:39.333Z,5.40
2022-10-18T15:30:43.871Z,5.40
2022-10-18T15:33:24.538Z,5.20
2022-10-18T15:35:54.255Z,4.80
2022-10-18T15:38:37.866Z,5.00
2022-10-18T15:41:45.894Z,4.60
2022-10-18T15:44:51.457Z,4.60
2022-10-18T15:47:22.406Z,4.30
2022-10-18T15:49:58.946Z,4.40
2022-10-18T15:52:43.502Z,4.20
2022-10-18T15:55:30.325Z,4.30
2022-10-18T15:58:17.769Z,4.30
2022-10-18T16:00:47.727Z,4.20
2022-10-18T16:03:18.429Z,3.90
2022-10-18T16:05:54.090Z,4.30
2022-10-18T16:08:28.944Z,3.80
2022-10-18T16:10:59.098Z,4.00
2022-10-18T16:13:27.811Z,3.80
2022-10-18T16:15:56.207Z,4.00
2022-10-18T16:18:26.052Z,3.90
2022-10-18T16:20:53.953Z,3.60
2022-10-18T16:23:30.813Z,3.50
2022-10-18T16:25:59.181Z,3.60
2022-10-18T16:28:28.252Z,3.40
2022-10-18T16:31:01.986Z,3.70
2022-10-18T16:33:31.175Z,3.60
2022-10-18T16:35:59.888Z,3.20
2022-10-18T16:38:34.265Z,3.40
2022-10-18T16:41:06.032Z,3.30
2022-10-18T16:43:35.987Z,3.30
2022-10-18T16:46:07.120Z,3.10
2022-10-18T16:48:35.404Z,3.00
2022-10-18T16:51:03.683Z,3.40
2022-10-18T16:53:32.165Z,2.90
2022-10-18T16:56:03.553Z,3.00
2022-10-18T16:58:34.014Z,3.10
2022-10-18T17:01:04.219Z,2.90
2022-10-18T17:03:34.994Z,2.70
2022-10-18T17:06:03.479Z,3.00
2022-10-18T17:08:31.449Z,2.60
2022-10-18T17:11:00.223Z,2.90
2022-10-18T17:13:28.092Z,2.50
2022-10-18T17:15:56.166Z,2.80
2022-10-18T17:18:30.745Z,3.00
2022-10-18T17:21:02.881Z,2.60
2022-10-18T17:23:31.966Z,2.60
2022-10-18T17:26:06.829Z,3.00
2022-10-18T17:28:44.766Z,2.80
2022-10-18T17:31:15.122Z,2.90
2022-10-18T17:33:43.466Z,2.80
2022-10-18T17:36:11.752Z,2.70
2022-10-18T17:38:40.309Z,2.70
2022-10-18T17:41:10.721Z,2.70
2022-10-18T17:46:14.977Z,2.70
2022-10-18T17:48:43.471Z,2.70
2022-10-18T17:51:15.807Z,2.80
2022-10-18T17:53:44.693Z,2.50
2022-10-18T17:56:14.077Z,2.40
2022-10-18T17:58:43.825Z,2.80
2022-10-18T18:01:20.713Z,2.80
2022-10-18T18:03:49.650Z,2.50
2022-10-18T18:06:31.035Z,2.80
2022-10-18T18:09:02.347Z,2.40
2022-10-18T18:11:30.984Z,2.60
2022-10-18T18:14:00.632Z,3.50
2022-10-18T18:16:30.168Z,4.00
2022-10-18T18:18:59.175Z,4.30
2022-10-18T18:21:28.135Z,4.90
2022-10-18T18:23:56.449Z,5.20
2022-10-18T18:26:25.445Z,5.20
2022-10-18T18:28:55.128Z,5.10
2022-10-18T18:31:28.412Z,5.10
2022-10-18T18:33:59.526Z,5.30
2022-10-18T18:36:32.578Z,5.60
2022-10-18T18:39:00.936Z,5.40
2022-10-18T18:41:29.304Z,5.00
2022-10-18T18:44:02.551Z,5.50
2022-10-18T18:46:37.640Z,5.00
2022-10-18T18:49:08.176Z,5.10
2022-10-18T18:51:40.464Z,5.20
2022-10-18T18:54:12.690Z,5.40
2022-10-18T18:56:42.846Z,5.60
2022-10-18T18:59:14.637Z,5.50
2022-10-18T19:01:44.129Z,5.40
2022-10-18T19:04:12.706Z,5.70
2022-10-18T19:06:46.621Z,5.50
2022-10-18T19:09:24.205Z,5.60
2022-10-18T19:11:55.255Z,5.30
2022-10-18T19:14:25.892Z,5.10
2022-10-18T19:16:59.051Z,5.60
2022-10-18T19:19:31.291Z,5.20
2022-10-18T19:22:04.565Z,5.30
2022-10-18T19:24:33.015Z,5.60
2022-10-18T19:27:08.916Z,4.90
2022-10-18T19:29:39.864Z,4.80
2022-10-18T19:32:15.215Z,5.40
2022-10-18T19:34:44.027Z,5.30
2022-10-18T19:37:13.774Z,5.40
2022-10-18T19:39:43.164Z,5.60
2022-10-18T19:42:18.591Z,5.30
2022-10-18T19:44:51.176Z,5.30
2022-10-18T19:47:20.461Z,5.20
2022-10-18T19:49:48.851Z,4.90
2022-10-18T19:52:16.823Z,4.90
2022-10-18T19:54:45.424Z,5.00
2022-10-18T19:57:13.478Z,5.10
2022-10-18T20:02:17.507Z,5.00
2022-10-18T20:04:45.475Z,4.80
2022-10-18T20:07:13.372Z,4.90
2022-10-18T20:09:41.418Z,5.00
2022-10-18T20:12:09.416Z,5.30
2022-10-18T20:14:37.564Z,5.00
2022-10-18T20:17:06.346Z,4.90
2022-10-18T20:19:34.420Z,5.10
2022-10-18T20:22:02.469Z,4.90
2022-10-18T20:24:30.666Z,4.80
2022-10-18T20:26:58.739Z,4.70
2022-10-18T20:29:27.019Z,5.00
2022-10-18T20:31:55.719Z,4.80
2022-10-18T20:34:26.220Z,4.80
2022-10-18T20:36:55.531Z,4.70
2022-10-18T20:39:23.573Z,4.90
2022-10-18T20:41:51.457Z,5.00
2022-10-18T20:44:22.809Z,4.30
2022-10-18T20:46:50.887Z,4.60
2022-10-18T20:49:19.269Z,5.00
2022-10-18T20:51:47.351Z,4.90
2022-10-18T20:54:15.167Z,4.60
2022-10-18T20:56:43.179Z,5.10
2022-10-18T20:59:11.816Z,4.50
2022-10-18T21:01:40.123Z,5.00
2022-10-18T21:04:10.367Z,4.80
2022-10-18T21:06:43.131Z,4.80
2022-10-18T21:09:18.237Z,4.70
2022-10-18T21:11:53.844Z,4.40
2022-10-18T21:14:25.029Z,4.20
2022-10-18T21:16:53.250Z,4.40
2022-10-18T21:19:25.828Z,4.50
2022-10-18T21:21:57.622Z,4.30
2022-10-18T21:24:27.257Z,4.70
2022-10-18T21:26:55.983Z,4.30
2022-10-18T21:29:27.229Z,4.60
2022-10-18T21:31:59.386Z,4.30
2022-10-18T21:34:27.873Z,4.30
2022-10-18T21:36:55.701Z,4.40
2022-10-18T21:41:57.732Z,4.50
2022-10-18T21:44:26.001Z,4.20
2022-10-18T21:46:55.129Z,4.10
2022-10-18T21:49:25.215Z,4.30
2022-10-18T21:51:53.358Z,4.20
2022-10-18T21:54:21.272Z,4.20
2022-10-18T21:56:49.202Z,4.00
2022-10-18T21:59:17.172Z,4.00
2022-10-18T22:01:45.782Z,3.90
2022-10-18T22:04:25.343Z,3.90
2022-10-18T22:06:53.295Z,3.90
2022-10-18T22:09:22.159Z,3.70
2022-10-18T22:11:53.651Z,3.60
2022-10-18T22:14:22.645Z,3.90
2022-10-18T22:16:51.217Z,4.10
2022-10-18T22:19:19.123Z,3.90
2022-10-18T22:21:47.546Z,3.40
2022-10-18T22:24:16.466Z,3.40
2022-10-18T22:26:46.496Z,3.40
2022-10-18T22:29:21.092Z,3.60
2022-10-18T22:31:53.064Z,3.70
2022-10-18T22:34:29.659Z,3.90
2022-10-18T22:36:57.572Z,4.10
2022-10-18T22:39:25.769Z,4.10
2022-10-18T22:41:56.506Z,4.20
2022-10-18T22:44:26.936Z,3.70
2022-10-18T22:46:54.806Z,3.70
2022-10-18T22:49:23.159Z,4.10
2022-10-18T22:51:51.456Z,3.80
2022-10-18T22:54:19.940Z,3.90
2022-10-18T22:56:47.809Z,3.90
2022-10-18T22:59:16.086Z,3.50
2022-10-18T23:01:44.086Z,3.70
2022-10-18T23:04:11.915Z,3.90
2022-10-18T23:06:40.603Z,3.40
2022-10-18T23:09:10.738Z,3.80
2022-10-18T23:11:38.673Z,3.40
2022-10-18T23:14:07.895Z,3.20
2022-10-18T23:16:36.785Z,3.40
2022-10-18T23:19:05.222Z,3.40
2022-10-18T23:21:34.479Z,3.10
2022-10-18T23:24:02.320Z,3.50
2022-10-18T23:26:30.405Z,3.30
2022-10-18T23:28:58.451Z,3.60
2022-10-18T23:31:30.488Z,3.30
2022-10-18T23:34:03.129Z,3.60
2022-10-18T23:36:33.482Z,3.10
2022-10-18T23:39:04.191Z,3.40
2022-10-18T23:41:32.759Z,3.40
2022-10-18T23:44:00.727Z,3.20
2022-10-18T23:46:28.997Z,2.90
2022-10-18T23:48:56.874Z,3.30
2022-10-18T23:51:24.842Z,3.00
2022-10-18T23:53:52.812Z,3.00
2022-10-18T23:56:20.591Z,3.10
2022-10-18T23:58:48.547Z,3.50
